Sandspit Airport
CYZP : now visible

Airfield :











YOU CAN JOIN US ON...

 
LOGIN :

Register | Disclaimer

   EN    FR    IT 

 









Legend :    VFR   Marginal VFR   IFR   Intensive IFR   Very Intensive IFR
Visi :
Ceiling :
>= 8 km
>= 3000ft
5 to 8 km
1000 to 3000 ft
1500m to 5 km
500 to 1000 ft
800 to 1500m
200 to 500 ft
< 800m
< 200 ft
Symbols :   Thunderstorms  Fog  Heavy snow  Heavy precipitations  Wind > 20 kt






- Airport Elevation : 21 ft
- IATA code : YZP


CYZP - Sandspit

CURRENT METAR :
  • 060600Z AUTO 34006KT 9SM BKN026 04/02 A2998 RMK SLP153

EXPIRED METARs :
  • 060507Z AUTO 23006KT 180V250 9SM SCT010 BKN026 04/03 A2997 RMK SLP152
  • 060426Z AUTO 26007KT 9SM BKN024 BKN030 04/03 A2997 RMK SLP152
  • 060400Z AUTO 29007KT 9SM FEW009 BKN026 OVC034 04/03 A2999 RMK SLP156

TAF AMD TAF CYZP
Valid from the 06 at 01:00 until the 06 at 13:00 UTC


060128Z 0601/0613 34008KT P6SM SCT020 SCT120
TEMPO 0601/0613 BKN020 BKN120 RMK FCST BASED ON AUTO OBS. NXT FCST BY 060700Z



MET'MAP, your aeronautical weather chart ! - Copyright ORBIFLY December 2007 - Disclaimer

ORBIFLY MET'MAP TEAM :

Programming & Development : Alexandra Zaïnal
Concept & original design : Baudouin d'Aumeries
Assistance for programming : Marc-Olivier Méhu
Technical & hardware support : Manuel Goepfert

Contact : metmap@orbifly.com




SOURCES & CREDITS :

   NOAA       Earth
Advisory